createdAt,value
2023-03-07T00:05:13.583Z,2.8
2023-03-07T00:20:13.488Z,2.9
2023-03-07T00:35:13.499Z,3.1
2023-03-07T00:50:13.598Z,3.1
2023-03-07T01:05:13.550Z,3.1
2023-03-07T01:20:13.590Z,2.9
2023-03-07T01:35:13.542Z,2.9
2023-03-07T01:50:13.567Z,3
2023-03-07T02:05:13.564Z,3
2023-03-07T02:20:13.448Z,3
2023-03-07T02:35:13.577Z,3
2023-03-07T02:50:13.524Z,2.9
2023-03-07T03:05:13.568Z,2.9
2023-03-07T03:20:13.603Z,2.8
2023-03-07T03:35:13.555Z,2.9
2023-03-07T03:50:13.553Z,2.9
2023-03-07T04:05:13.560Z,2.9
2023-03-07T04:20:13.583Z,2.8
2023-03-07T04:35:13.443Z,2.8
2023-03-07T04:50:13.545Z,2.8
2023-03-07T05:05:13.581Z,2.9
2023-03-07T05:20:13.547Z,2.9
2023-03-07T05:35:13.471Z,3.1
2023-03-07T05:50:13.583Z,3
2023-03-07T06:05:13.480Z,3
2023-03-07T06:20:13.531Z,3.2
2023-03-07T06:35:13.574Z,3.1
2023-03-07T06:50:13.557Z,3.1
2023-03-07T07:05:13.542Z,3.1
2023-03-07T07:20:13.566Z,3.1
2023-03-07T07:35:13.560Z,3.1
2023-03-07T07:50:13.514Z,3.1
2023-03-07T08:05:13.547Z,3.3
2023-03-07T08:20:13.561Z,3.2
2023-03-07T08:35:13.569Z,3.4
2023-03-07T08:50:13.602Z,3.4
2023-03-07T09:05:13.560Z,3.4
2023-03-07T09:20:13.555Z,3.5
2023-03-07T09:35:13.457Z,3.4
2023-03-07T09:50:13.541Z,3.4
2023-03-07T10:05:13.585Z,3.3
2023-03-07T10:20:13.593Z,3.4
2023-03-07T10:35:13.591Z,3.4
2023-03-07T10:50:13.572Z,3.6
2023-03-07T11:05:13.477Z,3.6
2023-03-07T11:20:13.490Z,3.7
2023-03-07T11:35:13.485Z,3.6
2023-03-07T11:50:13.574Z,3.6
2023-03-07T12:05:13.589Z,3.6
2023-03-07T12:20:13.686Z,3.4
2023-03-07T12:35:13.539Z,3.4
2023-03-07T12:50:13.656Z,3.4
2023-03-07T13:05:13.563Z,3.3
2023-03-07T13:20:13.575Z,2.9
2023-03-07T13:35:13.574Z,2.9
2023-03-07T13:50:13.491Z,2.2
2023-03-07T14:05:13.454Z,1.6
2023-03-07T14:20:13.476Z,1.6
2023-03-07T14:35:13.578Z,1.6
2023-03-07T14:50:13.578Z,1.7
2023-03-07T15:05:13.565Z,1.7
2023-03-07T15:20:13.534Z,1.5
2023-03-07T15:35:13.590Z,1.4
2023-03-07T15:50:13.580Z,1.5
2023-03-07T16:05:13.562Z,1.5
2023-03-07T16:20:13.599Z,1.6
2023-03-07T16:35:13.540Z,1.7
2023-03-07T16:50:13.563Z,1.8
2023-03-07T17:05:13.568Z,1.7
2023-03-07T17:20:13.604Z,1.6
2023-03-07T17:35:13.629Z,1.5
2023-03-07T17:50:13.559Z,1.4
2023-03-07T18:05:13.483Z,1.3
2023-03-07T18:20:13.550Z,0.9
2023-03-07T18:35:13.572Z,0.6
2023-03-07T18:50:13.535Z,0.4
2023-03-07T19:05:13.567Z,0.4
2023-03-07T19:20:13.572Z,0.1
2023-03-07T19:35:13.538Z,0
2023-03-07T19:50:13.569Z,-0.1
2023-03-07T20:05:13.585Z,-0.1
2023-03-07T20:20:13.543Z,-0.2
2023-03-07T20:35:13.568Z,-0.1
2023-03-07T20:50:13.568Z,-0.1
2023-03-07T21:05:13.601Z,-0.1
2023-03-07T21:20:13.574Z,-0.1
2023-03-07T21:35:13.565Z,0
2023-03-07T21:50:13.483Z,-0.1
2023-03-07T22:05:13.544Z,-0.1
2023-03-07T22:20:13.519Z,-0.1
2023-03-07T22:35:13.570Z,-0.1
2023-03-07T22:50:13.555Z,0.1
2023-03-07T23:05:13.551Z,0
2023-03-07T23:20:13.534Z,0
2023-03-07T23:35:13.570Z,0.1
2023-03-07T23:50:13.537Z,0
